createdAt,value
2018-02-25T00:01:35.721Z,45.97
2018-02-25T00:04:09.466Z,45.81
2018-02-25T00:06:43.184Z,45.64
2018-02-25T00:09:16.937Z,46.25
2018-02-25T00:11:50.821Z,47.47
2018-02-25T00:14:24.768Z,45.83
2018-02-25T00:20:08.364Z,45.79
2018-02-25T00:22:42.069Z,46.12
2018-02-25T00:25:15.984Z,46.59
2018-02-25T00:27:49.940Z,47.77
2018-02-25T00:30:23.600Z,46.25
2018-02-25T00:32:57.381Z,46.78
2018-02-25T00:35:31.128Z,47.52
2018-02-25T00:38:04.883Z,46.92
2018-02-25T00:40:38.649Z,46.75
2018-02-25T00:43:12.442Z,46.59
2018-02-25T00:45:46.214Z,47.06
2018-02-25T00:48:20.256Z,47.11
2018-02-25T00:50:54.152Z,47.55
2018-02-25T00:53:28.069Z,47.21
2018-02-25T00:56:01.830Z,47.81
2018-02-25T00:58:35.550Z,47.91
2018-02-25T01:01:09.363Z,48.21
2018-02-25T01:03:43.067Z,47.94
2018-02-25T01:06:16.786Z,48.13
2018-02-25T01:08:50.570Z,48.01
2018-02-25T01:11:24.422Z,47.89
2018-02-25T01:13:58.272Z,48.02
2018-02-25T01:16:32.115Z,48.52
2018-02-25T01:19:05.906Z,49.85
2018-02-25T01:21:39.759Z,49.47
2018-02-25T01:24:13.616Z,49.97
2018-02-25T01:26:47.372Z,49.00
2018-02-25T01:29:21.177Z,48.73
2018-02-25T01:31:55.022Z,49.23
2018-02-25T01:34:28.786Z,49.37
2018-02-25T01:37:02.682Z,48.09
2018-02-25T01:39:36.456Z,48.64
2018-02-25T01:42:10.272Z,48.68
2018-02-25T01:44:44.110Z,48.53
2018-02-25T01:47:17.887Z,48.82
2018-02-25T01:49:51.614Z,49.03
2018-02-25T01:52:25.467Z,49.73
2018-02-25T01:54:59.396Z,50.67
2018-02-25T01:57:33.219Z,50.18
2018-02-25T02:00:06.984Z,49.83
2018-02-25T02:02:40.757Z,49.77
2018-02-25T02:05:14.530Z,49.57
2018-02-25T02:07:48.246Z,49.42
2018-02-25T02:10:22.128Z,49.56
2018-02-25T02:12:55.978Z,49.69
2018-02-25T02:15:29.750Z,49.28
2018-02-25T02:18:03.499Z,49.36
2018-02-25T02:20:37.422Z,49.53
2018-02-25T02:23:11.290Z,50.73
2018-02-25T02:25:45.288Z,49.55
2018-02-25T02:28:19.507Z,49.97
2018-02-25T02:30:53.263Z,50.09
2018-02-25T02:33:27.013Z,49.85
2018-02-25T02:36:00.748Z,49.97
2018-02-25T02:38:34.537Z,50.42
2018-02-25T02:41:08.268Z,50.04
2018-02-25T02:43:41.972Z,51.19
2018-02-25T02:46:16.055Z,50.38
2018-02-25T02:48:50.048Z,50.79
2018-02-25T02:51:23.823Z,50.80
2018-02-25T02:53:57.705Z,51.48
2018-02-25T02:56:31.566Z,51.38
2018-02-25T02:59:05.494Z,51.81
2018-02-25T03:01:39.347Z,51.02
2018-02-25T03:04:13.225Z,50.38
2018-02-25T03:06:46.954Z,50.67
2018-02-25T03:09:20.814Z,50.93
2018-02-25T03:11:54.690Z,51.43
2018-02-25T03:14:28.434Z,51.28
2018-02-25T03:17:07.919Z,51.04
2018-02-25T03:19:41.670Z,52.07
2018-02-25T03:22:15.503Z,52.12
2018-02-25T03:24:49.503Z,52.15
2018-02-25T03:27:23.371Z,52.07
2018-02-25T03:29:57.117Z,52.62
2018-02-25T03:32:30.954Z,52.14
2018-02-25T03:35:04.730Z,52.56
2018-02-25T03:37:38.470Z,52.85
2018-02-25T03:40:12.306Z,52.59
2018-02-25T03:42:46.038Z,52.05
2018-02-25T03:45:19.876Z,52.10
2018-02-25T03:47:53.579Z,51.99
2018-02-25T03:50:27.399Z,52.57
2018-02-25T03:53:01.303Z,52.41
2018-02-25T03:55:35.062Z,52.29
2018-02-25T03:58:08.919Z,52.35
2018-02-25T04:00:42.886Z,51.98
2018-02-25T04:03:16.579Z,51.58
2018-02-25T04:05:50.407Z,52.63
2018-02-25T04:08:24.107Z,52.10
2018-02-25T04:10:57.872Z,51.51
2018-02-25T04:13:31.823Z,52.05
2018-02-25T04:16:05.543Z,51.71
2018-02-25T04:18:39.299Z,51.43
2018-02-25T04:21:13.102Z,51.81
2018-02-25T04:23:46.843Z,51.88
2018-02-25T04:26:20.719Z,51.83
2018-02-25T04:28:54.574Z,51.47
2018-02-25T04:31:28.447Z,51.29
2018-02-25T04:34:02.171Z,51.05
2018-02-25T04:36:35.998Z,50.93
2018-02-25T04:39:09.700Z,51.33
2018-02-25T04:41:43.617Z,51.60
2018-02-25T04:44:17.527Z,51.38
2018-02-25T04:50:02.715Z,50.14
2018-02-25T04:52:36.506Z,50.38
2018-02-25T04:55:10.204Z,49.95
2018-02-25T04:57:44.239Z,49.48
2018-02-25T05:00:18.076Z,49.76
2018-02-25T05:02:51.918Z,49.69
2018-02-25T05:05:25.696Z,49.84
2018-02-25T05:07:59.630Z,50.02
2018-02-25T05:10:33.571Z,49.15
2018-02-25T05:13:07.311Z,49.52
2018-02-25T05:15:41.186Z,50.13
2018-02-25T05:18:14.919Z,50.22
2018-02-25T05:20:48.671Z,49.85
2018-02-25T05:23:22.466Z,50.45
2018-02-25T05:25:56.447Z,50.88
2018-02-25T05:28:30.175Z,49.98
2018-02-25T05:31:03.908Z,49.94
2018-02-25T05:33:37.627Z,49.67
2018-02-25T05:36:12.270Z,49.90
2018-02-25T05:38:46.146Z,49.94
2018-02-25T05:41:19.843Z,49.63
2018-02-25T05:43:53.798Z,50.32
2018-02-25T05:46:27.531Z,49.68
2018-02-25T05:49:01.333Z,50.92
2018-02-25T05:51:35.106Z,50.31
2018-02-25T05:54:08.889Z,49.97
2018-02-25T05:56:42.728Z,50.69
2018-02-25T05:59:16.519Z,51.21
2018-02-25T06:01:50.422Z,50.94
2018-02-25T06:04:24.155Z,49.87
2018-02-25T06:06:58.078Z,50.63
2018-02-25T06:09:31.818Z,49.96
2018-02-25T06:12:05.803Z,49.86
2018-02-25T06:14:39.652Z,51.14
2018-02-25T06:17:13.431Z,51.15
2018-02-25T06:19:47.166Z,51.43
2018-02-25T06:22:20.978Z,50.93
2018-02-25T06:24:54.866Z,50.85
2018-02-25T06:27:28.630Z,51.85
2018-02-25T06:30:02.416Z,51.38
2018-02-25T06:32:36.199Z,51.67
2018-02-25T06:35:10.107Z,50.64
2018-02-25T06:37:43.927Z,51.16
2018-02-25T06:40:17.752Z,51.53
2018-02-25T06:42:51.467Z,51.83
2018-02-25T06:45:25.326Z,51.15
2018-02-25T06:47:59.023Z,51.81
2018-02-25T06:50:32.883Z,51.65
2018-02-25T06:53:06.589Z,51.45
2018-02-25T06:55:40.375Z,50.93
2018-02-25T06:58:14.230Z,51.75
2018-02-25T07:00:47.974Z,51.92
2018-02-25T07:03:21.732Z,51.47
2018-02-25T07:05:55.535Z,51.23
2018-02-25T07:08:29.258Z,51.30
2018-02-25T07:11:03.022Z,51.05
2018-02-25T07:13:36.716Z,51.50
2018-02-25T07:16:10.513Z,51.13
2018-02-25T07:18:44.275Z,51.52
2018-02-25T07:21:18.080Z,51.28
2018-02-25T07:23:51.838Z,50.98
2018-02-25T07:26:25.773Z,51.77
2018-02-25T07:28:59.519Z,50.80
2018-02-25T07:31:33.536Z,50.54
2018-02-25T07:34:07.397Z,49.24
2018-02-25T07:36:41.155Z,44.00
2018-02-25T07:39:14.917Z,37.09
2018-02-25T07:41:48.704Z,30.31
2018-02-25T07:44:22.338Z,29.46
2018-02-25T07:46:56.126Z,27.31
2018-02-25T07:49:29.807Z,25.34
2018-02-25T07:52:03.520Z,22.95
2018-02-25T07:54:37.214Z,21.65
2018-02-25T07:57:10.949Z,20.41
2018-02-25T07:59:44.594Z,21.10
2018-02-25T08:02:18.279Z,21.75
2018-02-25T08:04:52.064Z,20.65
2018-02-25T08:07:25.771Z,21.17
2018-02-25T08:09:59.467Z,21.09
2018-02-25T08:12:33.210Z,19.86
2018-02-25T08:15:06.859Z,20.66
2018-02-25T08:17:40.587Z,21.25
2018-02-25T08:20:14.350Z,23.23
2018-02-25T08:22:48.134Z,24.35
2018-02-25T08:25:21.830Z,26.06
2018-02-25T08:27:55.686Z,26.87
2018-02-25T08:30:29.375Z,25.66
2018-02-25T08:33:03.127Z,25.82
2018-02-25T08:35:36.933Z,26.26
2018-02-25T08:38:10.652Z,24.99
2018-02-25T08:40:44.422Z,25.01
2018-02-25T08:43:18.114Z,23.96
2018-02-25T08:45:51.787Z,24.01
2018-02-25T08:48:25.638Z,24.51
2018-02-25T08:50:59.348Z,25.30
2018-02-25T08:53:33.767Z,26.66
2018-02-25T08:56:07.626Z,26.99
2018-02-25T08:58:41.332Z,29.14
2018-02-25T09:01:15.141Z,27.82
2018-02-25T09:03:48.788Z,26.89
2018-02-25T09:06:22.468Z,25.90
2018-02-25T09:08:56.298Z,24.30
2018-02-25T09:11:29.939Z,23.39
2018-02-25T09:14:03.772Z,23.50
2018-02-25T09:16:37.598Z,24.41
2018-02-25T09:19:11.574Z,25.14
2018-02-25T09:21:45.441Z,25.73
2018-02-25T09:24:19.049Z,25.45
2018-02-25T09:26:52.770Z,26.12
2018-02-25T09:29:26.726Z,26.48
2018-02-25T09:32:00.387Z,24.92
2018-02-25T09:34:34.061Z,24.49
2018-02-25T09:37:07.758Z,24.59
2018-02-25T09:39:41.474Z,25.29
2018-02-25T09:42:15.156Z,23.42
2018-02-25T09:44:48.947Z,23.57
2018-02-25T09:47:22.892Z,22.62
2018-02-25T09:49:56.643Z,23.46
2018-02-25T09:52:30.440Z,24.47
2018-02-25T09:55:04.123Z,26.75
2018-02-25T09:57:37.875Z,28.13
2018-02-25T10:00:11.637Z,29.10
2018-02-25T10:02:45.687Z,28.67
2018-02-25T10:05:19.073Z,29.67
2018-02-25T10:07:52.982Z,29.93
2018-02-25T10:10:26.734Z,29.08
2018-02-25T10:13:00.456Z,29.71
2018-02-25T10:15:34.064Z,29.62
2018-02-25T10:18:07.734Z,29.82
2018-02-25T10:20:41.354Z,28.16
2018-02-25T10:23:15.056Z,29.48
2018-02-25T10:25:48.870Z,29.87
2018-02-25T10:28:22.684Z,30.80
2018-02-25T10:30:56.579Z,30.06
2018-02-25T10:33:30.517Z,30.57
2018-02-25T10:36:04.279Z,29.07
2018-02-25T10:38:37.983Z,28.96
2018-02-25T10:41:11.903Z,29.69
2018-02-25T10:43:45.654Z,28.20
2018-02-25T10:46:19.365Z,27.96
2018-02-25T10:48:53.095Z,29.23
2018-02-25T10:51:26.782Z,28.78
2018-02-25T10:54:00.618Z,28.62
2018-02-25T10:56:34.602Z,27.79
2018-02-25T10:59:08.434Z,27.84
2018-02-25T11:01:42.094Z,27.67
2018-02-25T11:04:15.742Z,27.81
2018-02-25T11:06:49.450Z,27.51
2018-02-25T11:09:23.243Z,27.47
2018-02-25T11:11:57.113Z,27.54
2018-02-25T11:14:30.959Z,27.37
2018-02-25T11:17:04.668Z,29.29
2018-02-25T11:19:38.361Z,31.19
2018-02-25T11:22:12.119Z,30.74
2018-02-25T11:24:45.787Z,31.14
2018-02-25T11:27:19.659Z,31.43
2018-02-25T11:29:53.385Z,29.93
2018-02-25T11:32:27.068Z,29.39
2018-02-25T11:35:00.775Z,31.13
2018-02-25T11:37:34.803Z,30.81
2018-02-25T11:40:08.475Z,29.18
2018-02-25T11:42:42.135Z,28.54
2018-02-25T11:45:16.023Z,28.45
2018-02-25T11:47:49.832Z,27.57
2018-02-25T11:50:23.503Z,28.71
2018-02-25T11:52:57.176Z,30.17
2018-02-25T11:55:32.400Z,30.63
2018-02-25T11:58:06.350Z,31.54
2018-02-25T12:00:40.278Z,32.02
2018-02-25T12:03:14.048Z,32.34
2018-02-25T12:05:47.740Z,31.92
2018-02-25T12:08:21.452Z,31.81
2018-02-25T12:10:55.144Z,32.17
2018-02-25T12:13:28.853Z,32.37
2018-02-25T12:16:02.579Z,32.30
2018-02-25T12:18:36.503Z,32.38
2018-02-25T12:21:10.235Z,32.68
2018-02-25T12:23:44.180Z,32.29
2018-02-25T12:26:17.881Z,32.30
2018-02-25T12:28:51.566Z,32.85
2018-02-25T12:31:25.326Z,32.33
2018-02-25T12:33:59.050Z,32.43
2018-02-25T12:36:32.806Z,32.32
2018-02-25T12:39:06.686Z,32.59
2018-02-25T12:41:40.503Z,32.69
2018-02-25T12:44:14.248Z,33.04
2018-02-25T12:46:47.942Z,32.96
2018-02-25T12:49:21.686Z,32.85
2018-02-25T12:51:55.575Z,32.94
2018-02-25T12:54:29.375Z,32.28
2018-02-25T12:57:03.127Z,32.47
2018-02-25T12:59:36.999Z,32.82
2018-02-25T13:02:10.919Z,32.46
2018-02-25T13:04:44.907Z,32.19
2018-02-25T13:07:18.726Z,32.32
2018-02-25T13:09:52.502Z,32.50
2018-02-25T13:12:26.323Z,32.90
2018-02-25T13:15:00.110Z,32.19
2018-02-25T13:17:33.907Z,32.76
2018-02-25T13:20:07.655Z,32.67
2018-02-25T13:22:41.473Z,32.29
2018-02-25T13:25:15.423Z,32.35
2018-02-25T13:27:49.429Z,32.39
2018-02-25T13:30:23.322Z,32.17
2018-02-25T13:32:57.218Z,32.14
2018-02-25T13:35:30.975Z,31.67
2018-02-25T13:38:04.857Z,31.44
2018-02-25T13:40:38.586Z,31.63
2018-02-25T13:43:12.482Z,30.80
2018-02-25T13:45:46.395Z,30.57
2018-02-25T13:48:20.209Z,30.26
2018-02-25T13:50:54.174Z,30.19
2018-02-25T13:53:28.013Z,29.91
2018-02-25T13:56:01.868Z,30.17
2018-02-25T13:58:35.531Z,30.47
2018-02-25T14:01:09.391Z,30.86
2018-02-25T14:03:43.219Z,30.02
2018-02-25T14:06:17.083Z,29.86
2018-02-25T14:08:50.911Z,30.02
2018-02-25T14:11:24.570Z,30.57
2018-02-25T14:13:58.273Z,30.85
2018-02-25T14:16:32.111Z,30.58
2018-02-25T14:19:05.902Z,30.90
2018-02-25T14:21:39.538Z,30.17
2018-02-25T14:24:13.393Z,30.60
2018-02-25T14:26:47.166Z,31.22
2018-02-25T14:29:22.369Z,31.82
2018-02-25T14:31:56.250Z,31.13
2018-02-25T14:34:29.930Z,31.10
2018-02-25T14:37:03.777Z,31.51
2018-02-25T14:39:37.589Z,31.36
2018-02-25T14:42:11.659Z,31.47
2018-02-25T14:44:45.455Z,31.80
2018-02-25T14:47:19.217Z,31.90
2018-02-25T14:49:52.940Z,32.14
2018-02-25T14:52:26.836Z,32.09
2018-02-25T14:55:00.741Z,31.13
2018-02-25T14:57:34.580Z,30.63
2018-02-25T15:00:08.297Z,31.38
2018-02-25T15:02:42.149Z,31.16
2018-02-25T15:05:15.853Z,32.42
2018-02-25T15:07:49.513Z,32.60
2018-02-25T15:10:23.277Z,32.43
2018-02-25T15:12:57.039Z,32.82
2018-02-25T15:15:30.962Z,32.71
2018-02-25T15:18:04.836Z,32.80
2018-02-25T15:20:38.710Z,32.75
2018-02-25T15:23:12.613Z,32.48
2018-02-25T15:25:46.329Z,32.62
2018-02-25T15:28:20.228Z,33.27
2018-02-25T15:30:54.117Z,32.99
2018-02-25T15:33:28.058Z,33.04
2018-02-25T15:36:01.714Z,32.99
2018-02-25T15:38:35.520Z,33.30
2018-02-25T15:41:09.322Z,33.54
2018-02-25T15:43:43.221Z,33.40
2018-02-25T15:46:16.954Z,33.37
2018-02-25T15:48:50.964Z,33.44
2018-02-25T15:51:24.869Z,33.65
2018-02-25T15:53:58.590Z,33.78
2018-02-25T15:56:32.513Z,33.72
2018-02-25T15:59:06.473Z,33.72
2018-02-25T16:01:40.434Z,33.83
2018-02-25T16:04:14.373Z,34.07
2018-02-25T16:06:48.142Z,34.02
2018-02-25T16:09:21.909Z,34.47
2018-02-25T16:11:55.678Z,34.49
2018-02-25T16:14:29.416Z,35.91
2018-02-25T16:17:03.237Z,35.64
2018-02-25T16:19:37.165Z,35.98
2018-02-25T16:22:10.922Z,35.44
2018-02-25T16:24:44.821Z,36.09
2018-02-25T16:27:18.506Z,36.70
2018-02-25T16:29:52.418Z,36.91
2018-02-25T16:32:26.275Z,36.35
2018-02-25T16:35:01.042Z,36.40
2018-02-25T16:37:35.085Z,36.01
2018-02-25T16:40:08.837Z,36.38
2018-02-25T16:42:42.687Z,36.48
2018-02-25T16:45:16.662Z,36.93
2018-02-25T16:47:50.584Z,37.50
2018-02-25T16:50:24.346Z,37.76
2018-02-25T16:52:58.226Z,37.40
2018-02-25T16:55:32.098Z,37.77
2018-02-25T16:58:05.986Z,38.31
2018-02-25T17:00:39.868Z,37.72
2018-02-25T17:03:13.644Z,38.28
2018-02-25T17:05:47.617Z,38.66
2018-02-25T17:08:21.394Z,38.71
2018-02-25T17:10:55.262Z,38.70
2018-02-25T17:13:29.146Z,39.22
2018-02-25T17:16:02.949Z,39.19
2018-02-25T17:18:36.848Z,39.43
2018-02-25T17:21:10.777Z,40.36
2018-02-25T17:23:44.550Z,39.67
2018-02-25T17:26:18.274Z,39.64
2018-02-25T17:28:52.262Z,39.43
2018-02-25T17:31:26.058Z,38.92
2018-02-25T17:33:59.874Z,39.11
2018-02-25T17:36:33.614Z,39.31
2018-02-25T17:39:07.359Z,39.44
2018-02-25T17:41:41.109Z,39.82
2018-02-25T17:44:14.790Z,39.18
2018-02-25T17:46:48.609Z,39.72
2018-02-25T17:49:22.364Z,39.64
2018-02-25T17:51:56.074Z,39.52
2018-02-25T17:54:29.957Z,40.11
2018-02-25T17:57:03.684Z,39.71
2018-02-25T17:59:37.541Z,39.64
2018-02-25T18:02:11.316Z,40.36
2018-02-25T18:04:45.065Z,40.35
2018-02-25T18:07:18.870Z,40.37
2018-02-25T18:09:52.655Z,40.35
2018-02-25T18:12:26.369Z,40.93
2018-02-25T18:15:00.206Z,41.02
2018-02-25T18:17:33.915Z,41.17
2018-02-25T18:20:07.592Z,41.49
2018-02-25T18:22:41.318Z,41.21
2018-02-25T18:25:15.095Z,41.52
2018-02-25T18:27:49.131Z,41.74
2018-02-25T18:30:22.852Z,41.93
2018-02-25T18:32:56.622Z,42.03
2018-02-25T18:35:30.310Z,41.51
2018-02-25T18:38:04.018Z,41.96
2018-02-25T18:40:37.921Z,42.24
2018-02-25T18:43:11.845Z,42.50
2018-02-25T18:45:45.606Z,42.55
2018-02-25T18:48:19.420Z,42.69
2018-02-25T18:50:53.265Z,43.03
2018-02-25T18:53:27.013Z,43.24
2018-02-25T18:56:00.750Z,42.97
2018-02-25T18:58:34.556Z,43.58
2018-02-25T19:01:08.290Z,44.29
2018-02-25T19:03:42.129Z,44.63
2018-02-25T19:06:15.935Z,44.90
2018-02-25T19:08:49.869Z,45.17
2018-02-25T19:11:23.573Z,45.75
2018-02-25T19:13:57.452Z,46.93
2018-02-25T19:16:31.493Z,47.49
2018-02-25T19:19:05.388Z,48.30
2018-02-25T19:21:39.142Z,48.50
2018-02-25T19:24:13.104Z,48.57
2018-02-25T19:26:46.862Z,49.33
2018-02-25T19:29:20.575Z,49.56
2018-02-25T19:31:54.342Z,49.69
2018-02-25T19:34:29.178Z,50.28
2018-02-25T19:37:08.486Z,50.56
2018-02-25T19:39:47.995Z,50.94
2018-02-25T19:42:21.932Z,51.32
2018-02-25T19:44:55.626Z,51.40
2018-02-25T19:47:29.498Z,51.57
2018-02-25T19:50:03.403Z,51.69
2018-02-25T19:52:37.063Z,51.67
2018-02-25T19:55:10.805Z,51.85
2018-02-25T19:57:44.482Z,51.72
2018-02-25T20:00:18.254Z,51.91
2018-02-25T20:02:52.023Z,52.10
2018-02-25T20:05:25.905Z,52.10
2018-02-25T20:07:59.833Z,52.20
2018-02-25T20:10:33.530Z,52.33
2018-02-25T20:13:07.297Z,52.39
2018-02-25T20:15:40.959Z,52.22
2018-02-25T20:18:14.670Z,51.80
2018-02-25T20:20:48.395Z,51.25
2018-02-25T20:23:22.081Z,51.71
2018-02-25T20:25:55.802Z,51.27
2018-02-25T20:28:29.486Z,51.37
2018-02-25T20:31:03.233Z,51.47
2018-02-25T20:33:36.974Z,51.61
2018-02-25T20:36:10.690Z,51.96
2018-02-25T20:38:44.429Z,51.69
2018-02-25T20:41:18.161Z,52.08
2018-02-25T20:43:52.549Z,52.77
2018-02-25T20:46:26.425Z,52.58
2018-02-25T20:49:00.124Z,52.89
2018-02-25T20:51:33.928Z,53.11
2018-02-25T20:54:07.682Z,53.65
2018-02-25T20:56:41.431Z,53.80
2018-02-25T20:59:15.431Z,53.99
2018-02-25T21:01:49.181Z,54.00
2018-02-25T21:04:22.978Z,54.28
2018-02-25T21:06:56.698Z,54.28
2018-02-25T21:09:30.357Z,54.88
2018-02-25T21:12:04.022Z,55.15
2018-02-25T21:14:37.666Z,55.34
2018-02-25T21:17:11.401Z,55.28
2018-02-25T21:19:45.263Z,55.23
2018-02-25T21:22:19.013Z,55.19
2018-02-25T21:24:53.037Z,55.38
2018-02-25T21:27:26.870Z,55.35
2018-02-25T21:30:00.556Z,55.76
2018-02-25T21:32:34.329Z,56.10
2018-02-25T21:35:08.140Z,56.25
2018-02-25T21:37:41.825Z,56.02
2018-02-25T21:40:15.518Z,56.48
2018-02-25T21:42:49.236Z,56.36
2018-02-25T21:45:23.050Z,57.14
2018-02-25T21:47:56.760Z,57.57
2018-02-25T21:50:30.606Z,57.45
2018-02-25T21:53:04.406Z,57.96
2018-02-25T21:55:38.114Z,58.19
2018-02-25T21:58:17.737Z,58.49
2018-02-25T22:00:57.105Z,58.64
2018-02-25T22:03:36.954Z,58.75
2018-02-25T22:06:10.856Z,58.66
2018-02-25T22:08:44.574Z,59.37
2018-02-25T22:11:18.346Z,59.10
2018-02-25T22:13:52.066Z,59.46
2018-02-25T22:16:25.881Z,59.63
2018-02-25T22:18:59.589Z,59.74
2018-02-25T22:21:33.358Z,60.09
2018-02-25T22:24:07.211Z,59.88
2018-02-25T22:26:40.861Z,60.32
2018-02-25T22:29:14.586Z,60.29
2018-02-25T22:31:48.326Z,60.61
2018-02-25T22:34:22.070Z,60.63
2018-02-25T22:36:55.716Z,60.79
2018-02-25T22:39:29.586Z,61.07
2018-02-25T22:42:03.369Z,61.23
2018-02-25T22:44:37.144Z,61.64
2018-02-25T22:47:10.821Z,61.17
2018-02-25T22:49:44.754Z,61.65
2018-02-25T22:52:18.413Z,61.71
2018-02-25T22:54:52.219Z,61.71
2018-02-25T22:57:25.929Z,61.90
2018-02-25T22:59:59.646Z,62.48
2018-02-25T23:02:33.441Z,62.59
2018-02-25T23:05:07.122Z,62.54
2018-02-25T23:07:40.805Z,63.01
2018-02-25T23:10:14.663Z,63.06
2018-02-25T23:12:48.602Z,63.16
2018-02-25T23:15:22.266Z,63.22
2018-02-25T23:17:55.985Z,63.66
2018-02-25T23:20:29.668Z,64.25
2018-02-25T23:23:03.382Z,63.77
2018-02-25T23:25:37.154Z,64.09
2018-02-25T23:28:10.893Z,64.46
2018-02-25T23:30:44.794Z,64.12
2018-02-25T23:33:18.521Z,64.32
2018-02-25T23:35:52.477Z,64.40
2018-02-25T23:38:26.182Z,64.64
2018-02-25T23:40:59.990Z,64.13
2018-02-25T23:43:33.699Z,64.05
2018-02-25T23:46:07.474Z,64.35
2018-02-25T23:48:41.191Z,64.62
2018-02-25T23:51:15.123Z,64.84
2018-02-25T23:53:48.930Z,65.11
2018-02-25T23:56:22.774Z,64.96
2018-02-25T23:58:56.675Z,65.07
